Terminal Aerodrome Forecast
Issued by NWS Lake Charles, LA

Home | Current Version | Previous Version | Text Only | Print | Product List | Glossary On
Versions: 1 2 3 4 5 6 7 8 9 10 11 12 13 14 15
388
FTUS44 KLCH 031734
TAFBPT
TAF
KBPT 031734Z 0318/0418 05015G25KT P6SM -RA SCT008 OVC015
      TEMPO 0318/0322 2SM -SHRA BR OVC008
     FM032200 05012G18KT P6SM -RA SCT008 OVC015
      TEMPO 0322/0402 2SM -SHRA BR OVC008
     FM040200 02011KT 4SM -SHRA BR OVC008=

USA.gov is the U.S. government's official web portal to all federal, state and local government web resources and services.